ADDS METAR Data INFO
IDs: Format: Raw Decoded Include TAF

Data at: 0253 UTC 21 Oct 2017

PABE 210224Z 23004KT 10SM SCT023 BKN110 M02/M04 A2926 RMK AO2 T10171044
PABE 210217Z 21004KT 10SM BKN023 BKN031 OVC110 M02/M04 A2926 RMK AO2 T10171044
PABE 210153Z 21006KT 10SM BKN110 M02/M04 A2926 RMK AO2 SLP910 T10171044
PABE 210137Z 20006KT 10SM SCT029 BKN110 M02/M05 A2926 RMK AO2 T10171050
PABE 210123Z 25006KT 10SM BKN028 BKN034 M01/M06 A2926 RMK AO2 T10111056
PABE 210053Z 28006KT 10SM FEW027 BKN037 BKN046 M01/M05 A2926 RMK AO2 SLP910 T10111050
PABE 202353Z 22005KT 10SM FEW042 SCT050 M02/M04 A2927 RMK AO2 SLP913 I6001 T10171044 11011 21056 58009
PABE 202303Z 23006KT 10SM FEW017 SCT028 BKN040 M02/M04 A2928 RMK AO2 T10171044
PABE 202253Z 23009KT 10SM SCT016 SCT023 BKN028 M01/M04 A2928 RMK AO2 SLP917 T10111044
PABE 202238Z 22008KT 10SM FEW011 BKN016 OVC040 M02/M04 A2928 RMK AO2 T10171044
PABE 202153Z 19007KT 10SM OVC042 M02/M03 A2928 RMK AO2 SLP919 T10221033
PABE 202114Z 19006KT 10SM FEW006 BKN042 M03/M04 A2929 RMK AO2 T10331044
PABE 202100Z 19005KT 10SM OVC042 M03/M04 A2929 RMK AO2 T10331044
PABE 202053Z 19007KT 10SM BKN015 M03/M04 A2929 RMK AO2 SLP922 I3001 T10331039 58004
PABE 202029Z 20005KT 10SM BKN015 M04/M05 A2930 RMK AO2 T10441050
PABE 201953Z 18007KT 10SM SCT003 OVC034 M04/M04 A2930 RMK AO2 SLP923 T10441044
PABE 201943Z 19007KT 10SM SCT003 OVC034 M04/M04 A2930 RMK AO2 T10441044
PABE 201917Z 21006KT 10SM BKN005 M05/M06 A2930 RMK AO2 T10501056
PABE 201853Z 20005KT 10SM BKN004 M06/M06 A2930 RMK AO2 SLP925 I1001 T10561061
PABE 201848Z 19006KT 10SM BKN002 M06/M06 A2930 RMK AO2 I1001
PABE 201828Z 20005KT 1SM R19R/1800V5000FT BR OVC002 M06/M06 A2930 RMK AO2 I1000 T10561061
PABE 201823Z 19006KT 1/2SM R19R/1600V3000FT FZFG OVC002 M06/M06 A2930 RMK AO2 I1000 T10561061
PABE 201815Z 19005KT 1 1/4SM R19R/2000VP6000FT BR OVC002 M06/M06 A2930 RMK AO2 T10561061
PABE 201757Z 20007KT 3SM R19R/4500VP6000FT BR OVC002 M04/M06 A2930 RMK AO2 T10441056
PABE 201753Z 20006KT 1 3/4SM R19R/4500VP6000FT BR OVC002 M04/M05 A2930 RMK AO2 VIS 1V5 SLP925 I1000 I6000 T10441050 11039 21067 56007
PABE 201739Z 20007KT 1/2SM R19R/6000VP6000FT FZFG OVC002 M04/M04 A2931 RMK AO2 T10441044
PABE 201729Z 20006KT 1SM R19R/P6000FT BR OVC002 M04/M04 A2931 RMK AO2 T10391044
PABE 201709Z 18005KT 1/2SM R19R/P6000FT FZFG OVC002 M05/M06 A2931 RMK AO2 T10501061
PABE 201707Z 18006KT 1SM R19R/P6000FT BR OVC002 M05/M06 A2931 RMK AO2 T10501061
PABE 201705Z 18007KT 10SM OVC002 M05/M06 A2931 RMK AO2 T10501061
PABE 201653Z 20006KT 10SM BKN037 M04/M06 A2931 RMK AO2 SLP927 T10441061
PABE 201553Z 20007KT 10SM OVC037 M04/M06 A2932 RMK AO2 SLP929 T10391056
PABE 201453Z 21007KT 10SM OVC038 M04/M06 A2932 RMK AO2 SLP932 T10391061 56014
PABE 201353Z 21006KT 10SM BKN038 M05/M08 A2934 RMK AO2 SLP937 T10501078
PABE 201253Z 22006KT 10SM CLR M05/M06 A2935 RMK AO2 SLP940 T10501061
PABE 201153Z 23006KT 10SM OVC047 M04/M05 A2936 RMK AO2 SLP946 I6000 T10391050 11039 21056 58016
PABE 201053Z 23007KT 10SM OVC049 M04/M05 A2938 RMK AO2 SLP951 T10441050
PABE 200953Z 22007KT 10SM BKN050 M04/M06 A2940 RMK AO2 SLP957 T10441056
PABE 200853Z 22006KT 10SM CLR M05/M06 A2941 RMK AO2 SLP962 I1000 I3000 T10501056 410061050 56002
PABE 200850Z 22008KT 10SM CLR M05/M05 A2941 RMK AO2 I1000
PABE 200840Z 20008KT 2SM MIFG CLR M04/M06 A2941 RMK AO2 T10441056
PABE 200753Z 22007KT 10SM SCT026 M04/M06 A2942 RMK AO2 SLP963 T10441056
PABE 200750Z 22007KT 10SM BKN026 M04/M05 A2942 RMK AO2
PABE 200653Z 22006KT 10SM FEW028 M04/M05 A2943 RMK AO2 SLP968 T10441050
PABE 200553Z 24007KT 10SM CLR M04/M05 A2944 RMK AO2 SLP972 T10391050 11006 21039 58018
PABE 200453Z 21007KT 10SM FEW027 M03/M04 A2946 RMK AO2 SLP979 T10281039
PABE 200353Z 22005KT 10SM FEW026 SCT031 BKN050 M02/M03 A2948 RMK AO2 SLP984 T10221028
PABE 200328Z 22004KT 10SM SCT006 BKN060 M03/M03 A2948 RMK AO2 T10281033
PABE 200300Z 26006KT 10SM OVC006 M02/M03 A2949 RMK AO2 T10171028
PABE 200253Z 25005KT 10SM SCT006 BKN045 M02/M03 A2949 RMK AO2 SLP990 T10171028 56014
PABE 200205Z 25007KT 10SM SCT009 BKN034 M02/M03 A2950 RMK AO2 T10171028
PABE 200200Z 27009KT 10SM BKN010 BKN028 OVC037 M02/M03 A2950 RMK AO2 T10171028
PABE 200153Z 26007KT 9SM BKN008 BKN029 OVC037 M01/M03 A2951 RMK AO2 SLP994 T10111028
PABE 200151Z 27008KT 9SM SCT009 BKN029 OVC037 M01/M03 A2951 RMK AO2
PABE 200123Z 27007KT 10SM SCT011 OVC041 M01/M03 A2951 RMK AO2 T10111033
PABE 200114Z 24008KT 10SM BKN010 OVC041 M01/M03 A2952 RMK AO2 T10111033
PABE 200053Z 26006KT 10SM SCT010 OVC043 M01/M03 A2952 RMK AO2 SLP999 T10111033
PABE 192353Z 25005KT 10SM FEW045 M01/M04 A2953 RMK AO2 SLP004 60000 I6001 T10061044 11006 21044 58018
PABE 192253Z 28003KT 10SM FEW012 SCT019 M02/M04 A2955 RMK AO2 SLP010 T10171039
PABE 192153Z COR 00000KT 10SM BR SCT003 M02/M03 A2957 RMK AO2 SLP017 T10221028
PABE 192053Z 30005KT 3SM BR SCT005 M03/M03 A2959 RMK AO2 SLP022 60000 I3001 T10281028 58005
PABE 192012Z 30007KT 3SM BR SCT005 M03/M04 A2959 RMK AO2 T10331039
PABE 191953Z 31005KT 3SM BR CLR M03/M04 A2960 RMK AO2 SLP025 T10331044
PABE 191910Z 29004KT 3SM R19R/2800VP6000FT BR CLR M04/M06 A2960 RMK AO2 T10441056
PABE 191853Z 29003KT 1/2SM R19R/2800V4000FT FZFG OVC002 M04/M06 A2960 RMK AO2 SNB15E41 SLP026 P0000 I1001 T10441056
PABE 191848Z 00000KT 1/2SM R19R/2200V3000FT FZFG OVC002 M04/M06 A2960 RMK AO2 SNB15E41 P0000 I1001
PABE 191833Z 34003KT 1/4SM R19R/2200V4000FT -SN FZFG OVC003 M04/M06 A2960 RMK AO2 SNB15 P0000 I1001 T10441061
PABE 191826Z 31004KT 1/2SM R19R/2400V3500FT -SN FZFG OVC003 M04/M06 A2960 RMK AO2 SNB15 P0000 I1001 T10441061
PABE 191819Z 31004KT 1/4SM R19R/2000V4000FT -SN FZFG VV003 M04/M06 A2961 RMK AO2 SNB15 P0000 I1001 T10441061
PABE 191804Z 33005KT 1/4SM R19R/1600V2200FT FZFG VV003 M04/M06 A2961 RMK AO2 I1000 T10391056
PABE 191755Z 32004KT 1/4SM R19R/1600V2600FT FZFG VV003 M04/M06 A2961 RMK AO2 T10391056
PABE 191753Z 30004KT 1/2SM R19R/1600V2600FT FZFG VV003 M04/M06 A2961 RMK AO2 SLP028 60000 I1001 I6003 T10391056 11017 21039 55002
PABE 191653Z 31005KT 1/2SM R19R/4500VP6000FT FZFG OVC002 M04/M05 A2960 RMK AO2 SLP027 I1001 T10391050
PABE 191623Z 33008KT 1/2SM R19R/3500VP6000FT FZFG OVC002 M04/M04 A2960 RMK AO2 I1000 T10391044
PABE 191615Z 33006KT 1SM R19R/3500VP6000FT BR OVC004 M03/M04 A2961 RMK AO2 CIG 002V006 T10331044
PABE 191606Z 33007KT 2 1/2SM BR OVC004 M03/M04 A2960 RMK AO2 T10331044
PABE 191553Z 30007KT 4SM BR OVC005 M03/M04 A2960 RMK AO2 SNB23E49 SLP027 P0000 I1000 T10331044
PABE 191546Z 30006KT 2SM -SN BR OVC005 M03/M04 A2960 RMK AO2 SNB23 P0000 I1000 T10331044
PABE 191530Z 30009KT 1 1/4SM -SN BR OVC004 M03/M04 A2961 RMK AO2 SNB23 P0000 I1000 T10281039
PABE 191514Z 32008KT 2SM BR OVC004 M03/M04 A2961 RMK AO2 I1000 T10281039